sensor_id;sensor_type;location;lat;lon;timestamp;P1;durP1;ratioP1;P2;durP2;ratioP2
39918;SDS011;25589;51.552;13.424;2023-11-21T00:00:54;8.48;;;3.00;;
39918;SDS011;25589;51.552;13.424;2023-11-21T00:03:20;4.93;;;2.40;;
39918;SDS011;25589;51.552;13.424;2023-11-21T00:05:45;4.03;;;2.50;;
39918;SDS011;25589;51.552;13.424;2023-11-21T00:08:11;6.63;;;2.95;;
39918;SDS011;25589;51.552;13.424;2023-11-21T00:10:36;7.68;;;2.50;;
39918;SDS011;25589;51.552;13.424;2023-11-21T00:13:03;5.72;;;2.50;;
39918;SDS011;25589;51.552;13.424;2023-11-21T00:15:29;5.43;;;2.40;;
39918;SDS011;25589;51.552;13.424;2023-11-21T00:17:54;5.18;;;2.95;;
39918;SDS011;25589;51.552;13.424;2023-11-21T00:20:20;5.43;;;2.83;;
39918;SDS011;25589;51.552;13.424;2023-11-21T00:22:46;6.90;;;2.50;;
39918;SDS011;25589;51.552;13.424;2023-11-21T00:25:12;5.70;;;2.33;;
39918;SDS011;25589;51.552;13.424;2023-11-21T00:27:40;12.07;;;3.03;;
39918;SDS011;25589;51.552;13.424;2023-11-21T00:30:06;4.75;;;2.28;;
39918;SDS011;25589;51.552;13.424;2023-11-21T00:32:35;4.03;;;2.50;;
39918;SDS011;25589;51.552;13.424;2023-11-21T00:35:01;4.53;;;2.25;;
39918;SDS011;25589;51.552;13.424;2023-11-21T00:37:27;2.63;;;2.08;;
39918;SDS011;25589;51.552;13.424;2023-11-21T00:39:53;5.80;;;2.58;;
39918;SDS011;25589;51.552;13.424;2023-11-21T00:42:18;4.10;;;2.83;;
39918;SDS011;25589;51.552;13.424;2023-11-21T00:44:44;4.75;;;2.83;;
39918;SDS011;25589;51.552;13.424;2023-11-21T00:47:09;8.35;;;2.67;;
39918;SDS011;25589;51.552;13.424;2023-11-21T00:49:35;3.85;;;2.08;;
39918;SDS011;25589;51.552;13.424;2023-11-21T00:52:01;4.85;;;2.65;;
39918;SDS011;25589;51.552;13.424;2023-11-21T00:54:27;5.68;;;2.38;;
39918;SDS011;25589;51.552;13.424;2023-11-21T00:56:53;5.75;;;2.55;;
39918;SDS011;25589;51.552;13.424;2023-11-21T00:59:18;3.28;;;2.00;;
39918;SDS011;25589;51.552;13.424;2023-11-21T01:01:44;3.92;;;2.28;;
39918;SDS011;25589;51.552;13.424;2023-11-21T01:04:09;3.95;;;2.10;;
39918;SDS011;25589;51.552;13.424;2023-11-21T01:06:35;9.27;;;2.30;;
39918;SDS011;25589;51.552;13.424;2023-11-21T01:09:01;4.32;;;1.90;;
39918;SDS011;25589;51.552;13.424;2023-11-21T01:11:32;6.82;;;2.72;;
39918;SDS011;25589;51.552;13.424;2023-11-21T01:14:01;6.10;;;2.00;;
39918;SDS011;25589;51.552;13.424;2023-11-21T01:16:28;4.03;;;2.35;;
39918;SDS011;25589;51.552;13.424;2023-11-21T01:18:54;3.67;;;1.90;;
39918;SDS011;25589;51.552;13.424;2023-11-21T01:21:19;4.40;;;2.30;;
39918;SDS011;25589;51.552;13.424;2023-11-21T01:23:45;6.43;;;2.45;;
39918;SDS011;25589;51.552;13.424;2023-11-21T01:26:12;3.80;;;2.20;;
39918;SDS011;25589;51.552;13.424;2023-11-21T01:28:38;9.60;;;2.33;;
39918;SDS011;25589;51.552;13.424;2023-11-21T01:31:03;4.70;;;2.53;;
39918;SDS011;25589;51.552;13.424;2023-11-21T01:33:29;4.22;;;2.58;;
39918;SDS011;25589;51.552;13.424;2023-11-21T01:35:54;5.70;;;2.70;;
39918;SDS011;25589;51.552;13.424;2023-11-21T01:38:21;5.13;;;2.58;;
39918;SDS011;25589;51.552;13.424;2023-11-21T01:40:47;5.00;;;2.42;;
39918;SDS011;25589;51.552;13.424;2023-11-21T01:43:12;3.97;;;2.53;;
39918;SDS011;25589;51.552;13.424;2023-11-21T01:45:38;3.08;;;2.30;;
39918;SDS011;25589;51.552;13.424;2023-11-21T01:48:04;5.65;;;2.75;;
39918;SDS011;25589;51.552;13.424;2023-11-21T01:50:31;5.22;;;2.72;;
39918;SDS011;25589;51.552;13.424;2023-11-21T01:52:58;4.32;;;2.20;;
39918;SDS011;25589;51.552;13.424;2023-11-21T01:55:25;3.55;;;2.85;;
39918;SDS011;25589;51.552;13.424;2023-11-21T01:57:52;5.30;;;2.70;;
39918;SDS011;25589;51.552;13.424;2023-11-21T02:00:19;6.30;;;2.58;;
39918;SDS011;25589;51.552;13.424;2023-11-21T02:02:45;6.20;;;2.95;;
39918;SDS011;25589;51.552;13.424;2023-11-21T02:05:12;3.30;;;2.33;;
39918;SDS011;25589;51.552;13.424;2023-11-21T02:07:39;4.75;;;2.75;;
39918;SDS011;25589;51.552;13.424;2023-11-21T02:10:06;6.30;;;2.80;;
39918;SDS011;25589;51.552;13.424;2023-11-21T02:12:32;4.13;;;2.75;;
39918;SDS011;25589;51.552;13.424;2023-11-21T02:15:00;4.50;;;2.35;;
39918;SDS011;25589;51.552;13.424;2023-11-21T02:17:35;4.78;;;2.78;;
39918;SDS011;25589;51.552;13.424;2023-11-21T02:20:01;4.93;;;2.85;;
39918;SDS011;25589;51.552;13.424;2023-11-21T02:22:30;6.35;;;2.63;;
39918;SDS011;25589;51.552;13.424;2023-11-21T02:24:57;5.45;;;3.33;;
39918;SDS011;25589;51.552;13.424;2023-11-21T02:27:23;3.63;;;2.70;;
39918;SDS011;25589;51.552;13.424;2023-11-21T02:29:49;9.50;;;3.05;;
39918;SDS011;25589;51.552;13.424;2023-11-21T02:32:15;4.72;;;2.95;;
39918;SDS011;25589;51.552;13.424;2023-11-21T02:34:44;5.82;;;2.58;;
39918;SDS011;25589;51.552;13.424;2023-11-21T02:37:10;6.18;;;3.33;;
39918;SDS011;25589;51.552;13.424;2023-11-21T02:39:35;9.27;;;3.15;;
39918;SDS011;25589;51.552;13.424;2023-11-21T02:42:01;6.40;;;3.10;;
39918;SDS011;25589;51.552;13.424;2023-11-21T02:44:26;4.43;;;2.70;;
39918;SDS011;25589;51.552;13.424;2023-11-21T02:46:52;5.25;;;3.30;;
39918;SDS011;25589;51.552;13.424;2023-11-21T02:49:17;6.70;;;2.97;;
39918;SDS011;25589;51.552;13.424;2023-11-21T02:51:43;4.28;;;2.65;;
39918;SDS011;25589;51.552;13.424;2023-11-21T02:54:09;5.22;;;3.08;;
39918;SDS011;25589;51.552;13.424;2023-11-21T02:56:35;3.85;;;2.60;;
39918;SDS011;25589;51.552;13.424;2023-11-21T02:59:02;8.65;;;3.50;;
39918;SDS011;25589;51.552;13.424;2023-11-21T03:01:28;6.65;;;3.35;;
39918;SDS011;25589;51.552;13.424;2023-11-21T03:03:53;5.95;;;3.45;;
39918;SDS011;25589;51.552;13.424;2023-11-21T03:06:20;9.02;;;3.25;;
39918;SDS011;25589;51.552;13.424;2023-11-21T03:08:46;6.45;;;3.58;;
39918;SDS011;25589;51.552;13.424;2023-11-21T03:11:12;5.55;;;3.20;;
39918;SDS011;25589;51.552;13.424;2023-11-21T03:13:41;6.50;;;3.45;;
39918;SDS011;25589;51.552;13.424;2023-11-21T03:16:10;5.10;;;3.33;;
39918;SDS011;25589;51.552;13.424;2023-11-21T03:18:37;6.07;;;3.25;;
39918;SDS011;25589;51.552;13.424;2023-11-21T03:21:06;6.78;;;3.40;;
39918;SDS011;25589;51.552;13.424;2023-11-21T03:23:35;8.07;;;4.10;;
39918;SDS011;25589;51.552;13.424;2023-11-21T03:26:02;6.07;;;3.55;;
39918;SDS011;25589;51.552;13.424;2023-11-21T03:28:29;6.25;;;3.53;;
39918;SDS011;25589;51.552;13.424;2023-11-21T03:30:55;6.03;;;3.78;;
39918;SDS011;25589;51.552;13.424;2023-11-21T03:33:22;8.07;;;3.53;;
39918;SDS011;25589;51.552;13.424;2023-11-21T03:35:48;6.47;;;3.45;;
39918;SDS011;25589;51.552;13.424;2023-11-21T03:38:14;8.95;;;3.83;;
39918;SDS011;25589;51.552;13.424;2023-11-21T03:40:40;8.68;;;4.07;;
39918;SDS011;25589;51.552;13.424;2023-11-21T03:43:06;8.73;;;4.18;;
39918;SDS011;25589;51.552;13.424;2023-11-21T03:45:32;6.82;;;3.38;;
39918;SDS011;25589;51.552;13.424;2023-11-21T03:47:57;7.93;;;3.35;;
39918;SDS011;25589;51.552;13.424;2023-11-21T03:50:23;6.70;;;3.97;;
39918;SDS011;25589;51.552;13.424;2023-11-21T03:52:48;8.57;;;4.18;;
39918;SDS011;25589;51.552;13.424;2023-11-21T03:55:14;6.22;;;3.65;;
39918;SDS011;25589;51.552;13.424;2023-11-21T03:57:41;8.85;;;4.47;;
39918;SDS011;25589;51.552;13.424;2023-11-21T04:00:07;6.25;;;3.83;;
39918;SDS011;25589;51.552;13.424;2023-11-21T04:02:37;7.30;;;4.22;;
39918;SDS011;25589;51.552;13.424;2023-11-21T04:05:02;8.40;;;4.13;;
39918;SDS011;25589;51.552;13.424;2023-11-21T04:07:29;8.20;;;4.20;;
39918;SDS011;25589;51.552;13.424;2023-11-21T04:09:55;7.68;;;4.47;;
39918;SDS011;25589;51.552;13.424;2023-11-21T04:12:21;7.43;;;3.85;;
39918;SDS011;25589;51.552;13.424;2023-11-21T04:14:46;9.07;;;4.07;;
39918;SDS011;25589;51.552;13.424;2023-11-21T04:17:12;9.40;;;4.43;;
39918;SDS011;25589;51.552;13.424;2023-11-21T04:19:38;10.55;;;4.15;;
39918;SDS011;25589;51.552;13.424;2023-11-21T04:22:03;7.03;;;4.05;;
39918;SDS011;25589;51.552;13.424;2023-11-21T04:24:29;8.20;;;4.20;;
39918;SDS011;25589;51.552;13.424;2023-11-21T04:26:54;7.03;;;4.18;;
39918;SDS011;25589;51.552;13.424;2023-11-21T04:29:20;7.93;;;4.00;;
39918;SDS011;25589;51.552;13.424;2023-11-21T04:31:46;11.57;;;4.30;;
39918;SDS011;25589;51.552;13.424;2023-11-21T04:34:13;12.18;;;4.55;;
39918;SDS011;25589;51.552;13.424;2023-11-21T04:36:39;7.38;;;4.00;;
39918;SDS011;25589;51.552;13.424;2023-11-21T04:39:05;11.60;;;4.38;;
39918;SDS011;25589;51.552;13.424;2023-11-21T04:41:31;9.00;;;3.90;;
39918;SDS011;25589;51.552;13.424;2023-11-21T04:43:57;7.95;;;4.10;;
39918;SDS011;25589;51.552;13.424;2023-11-21T04:46:23;6.03;;;4.00;;
39918;SDS011;25589;51.552;13.424;2023-11-21T04:48:49;9.02;;;4.85;;
39918;SDS011;25589;51.552;13.424;2023-11-21T04:51:14;11.63;;;4.78;;
39918;SDS011;25589;51.552;13.424;2023-11-21T04:53:40;10.95;;;4.88;;
39918;SDS011;25589;51.552;13.424;2023-11-21T04:56:06;7.25;;;4.72;;
39918;SDS011;25589;51.552;13.424;2023-11-21T04:58:32;9.23;;;4.60;;
39918;SDS011;25589;51.552;13.424;2023-11-21T05:00:58;12.10;;;4.75;;
39918;SDS011;25589;51.552;13.424;2023-11-21T05:03:23;9.43;;;4.53;;
39918;SDS011;25589;51.552;13.424;2023-11-21T05:05:49;11.32;;;4.75;;
39918;SDS011;25589;51.552;13.424;2023-11-21T05:08:14;9.18;;;5.13;;
39918;SDS011;25589;51.552;13.424;2023-11-21T05:10:40;9.00;;;5.13;;
39918;SDS011;25589;51.552;13.424;2023-11-21T05:13:05;9.93;;;5.05;;
39918;SDS011;25589;51.552;13.424;2023-11-21T05:15:35;10.65;;;4.70;;
39918;SDS011;25589;51.552;13.424;2023-11-21T05:18:01;11.00;;;4.85;;
39918;SDS011;25589;51.552;13.424;2023-11-21T05:20:27;7.30;;;4.38;;
39918;SDS011;25589;51.552;13.424;2023-11-21T05:22:53;10.02;;;4.50;;
39918;SDS011;25589;51.552;13.424;2023-11-21T05:25:18;7.68;;;4.70;;
39918;SDS011;25589;51.552;13.424;2023-11-21T05:27:45;12.10;;;5.25;;
39918;SDS011;25589;51.552;13.424;2023-11-21T05:30:11;10.15;;;5.10;;
39918;SDS011;25589;51.552;13.424;2023-11-21T05:32:38;11.15;;;5.30;;
39918;SDS011;25589;51.552;13.424;2023-11-21T05:35:04;13.95;;;5.28;;
39918;SDS011;25589;51.552;13.424;2023-11-21T05:37:35;7.78;;;4.47;;
39918;SDS011;25589;51.552;13.424;2023-11-21T05:40:01;11.10;;;4.80;;
39918;SDS011;25589;51.552;13.424;2023-11-21T05:42:31;11.25;;;5.28;;
39918;SDS011;25589;51.552;13.424;2023-11-21T05:44:57;8.05;;;4.45;;
39918;SDS011;25589;51.552;13.424;2023-11-21T05:47:44;10.70;;;4.82;;
39918;SDS011;25589;51.552;13.424;2023-11-21T05:50:11;10.10;;;5.10;;
39918;SDS011;25589;51.552;13.424;2023-11-21T05:52:39;9.68;;;4.95;;
39918;SDS011;25589;51.552;13.424;2023-11-21T05:55:06;8.65;;;5.60;;
39918;SDS011;25589;51.552;13.424;2023-11-21T05:57:39;9.90;;;5.47;;
39918;SDS011;25589;51.552;13.424;2023-11-21T06:00:09;7.90;;;5.07;;
39918;SDS011;25589;51.552;13.424;2023-11-21T06:02:39;10.30;;;5.55;;
39918;SDS011;25589;51.552;13.424;2023-11-21T06:05:09;9.07;;;4.95;;
39918;SDS011;25589;51.552;13.424;2023-11-21T06:07:35;9.95;;;5.30;;
39918;SDS011;25589;51.552;13.424;2023-11-21T06:10:03;9.13;;;5.20;;
39918;SDS011;25589;51.552;13.424;2023-11-21T06:12:35;11.30;;;5.70;;
39918;SDS011;25589;51.552;13.424;2023-11-21T06:15:01;10.18;;;5.45;;
39918;SDS011;25589;51.552;13.424;2023-11-21T06:17:30;10.00;;;5.20;;
39918;SDS011;25589;51.552;13.424;2023-11-21T06:19:56;11.25;;;6.15;;
39918;SDS011;25589;51.552;13.424;2023-11-21T06:22:21;9.80;;;6.20;;
39918;SDS011;25589;51.552;13.424;2023-11-21T06:24:47;9.98;;;5.30;;
39918;SDS011;25589;51.552;13.424;2023-11-21T06:27:12;11.65;;;6.20;;
39918;SDS011;25589;51.552;13.424;2023-11-21T06:29:38;9.82;;;5.40;;
39918;SDS011;25589;51.552;13.424;2023-11-21T06:32:04;9.25;;;5.55;;
39918;SDS011;25589;51.552;13.424;2023-11-21T06:34:30;8.60;;;5.28;;
39918;SDS011;25589;51.552;13.424;2023-11-21T06:36:56;11.68;;;5.78;;
39918;SDS011;25589;51.552;13.424;2023-11-21T06:39:21;9.00;;;5.03;;
39918;SDS011;25589;51.552;13.424;2023-11-21T06:41:49;10.57;;;5.25;;
39918;SDS011;25589;51.552;13.424;2023-11-21T06:44:15;11.70;;;5.45;;
39918;SDS011;25589;51.552;13.424;2023-11-21T06:46:40;8.45;;;5.10;;
39918;SDS011;25589;51.552;13.424;2023-11-21T06:49:07;10.50;;;5.45;;
39918;SDS011;25589;51.552;13.424;2023-11-21T06:51:33;8.65;;;5.47;;
39918;SDS011;25589;51.552;13.424;2023-11-21T06:53:59;10.07;;;5.68;;
39918;SDS011;25589;51.552;13.424;2023-11-21T06:56:24;12.50;;;6.60;;
39918;SDS011;25589;51.552;13.424;2023-11-21T06:58:50;12.93;;;6.13;;
39918;SDS011;25589;51.552;13.424;2023-11-21T07:01:19;18.02;;;9.27;;
39918;SDS011;25589;51.552;13.424;2023-11-21T07:03:44;5.72;;;2.97;;
39918;SDS011;25589;51.552;13.424;2023-11-21T07:06:10;2.92;;;2.35;;
39918;SDS011;25589;51.552;13.424;2023-11-21T07:08:37;2.47;;;2.15;;
39918;SDS011;25589;51.552;13.424;2023-11-21T07:11:03;2.67;;;2.13;;
39918;SDS011;25589;51.552;13.424;2023-11-21T07:13:29;2.58;;;1.90;;
39918;SDS011;25589;51.552;13.424;2023-11-21T07:15:55;4.50;;;2.38;;
39918;SDS011;25589;51.552;13.424;2023-11-21T07:18:21;3.08;;;2.30;;
39918;SDS011;25589;51.552;13.424;2023-11-21T07:20:47;2.05;;;1.70;;
39918;SDS011;25589;51.552;13.424;2023-11-21T07:23:12;5.20;;;2.20;;
39918;SDS011;25589;51.552;13.424;2023-11-21T07:25:38;3.03;;;2.53;;
39918;SDS011;25589;51.552;13.424;2023-11-21T07:28:03;3.38;;;2.90;;
39918;SDS011;25589;51.552;13.424;2023-11-21T07:30:30;2.20;;;1.98;;
39918;SDS011;25589;51.552;13.424;2023-11-21T07:32:56;2.40;;;2.20;;
39918;SDS011;25589;51.552;13.424;2023-11-21T07:35:21;2.33;;;2.13;;
39918;SDS011;25589;51.552;13.424;2023-11-21T07:37:47;2.65;;;2.45;;
39918;SDS011;25589;51.552;13.424;2023-11-21T07:40:14;2.80;;;2.40;;
39918;SDS011;25589;51.552;13.424;2023-11-21T07:42:39;4.63;;;2.97;;
39918;SDS011;25589;51.552;13.424;2023-11-21T07:45:07;3.10;;;2.80;;
39918;SDS011;25589;51.552;13.424;2023-11-21T07:47:33;3.58;;;3.28;;
39918;SDS011;25589;51.552;13.424;2023-11-21T07:50:00;4.35;;;3.50;;
39918;SDS011;25589;51.552;13.424;2023-11-21T07:52:28;5.97;;;3.80;;
39918;SDS011;25589;51.552;13.424;2023-11-21T07:54:53;6.10;;;3.83;;
39918;SDS011;25589;51.552;13.424;2023-11-21T07:57:19;4.68;;;3.28;;
39918;SDS011;25589;51.552;13.424;2023-11-21T07:59:44;5.25;;;3.97;;
39918;SDS011;25589;51.552;13.424;2023-11-21T08:02:10;7.65;;;4.18;;
39918;SDS011;25589;51.552;13.424;2023-11-21T08:04:36;5.63;;;3.90;;
39918;SDS011;25589;51.552;13.424;2023-11-21T08:07:02;7.07;;;4.50;;
39918;SDS011;25589;51.552;13.424;2023-11-21T08:09:28;8.07;;;4.88;;
39918;SDS011;25589;51.552;13.424;2023-11-21T08:11:54;6.65;;;4.88;;
39918;SDS011;25589;51.552;13.424;2023-11-21T08:14:21;7.13;;;4.78;;
39918;SDS011;25589;51.552;13.424;2023-11-21T08:16:47;9.07;;;5.35;;
39918;SDS011;25589;51.552;13.424;2023-11-21T08:19:12;9.15;;;5.00;;
39918;SDS011;25589;51.552;13.424;2023-11-21T08:21:38;11.90;;;5.70;;
39918;SDS011;25589;51.552;13.424;2023-11-21T08:24:06;10.00;;;5.63;;
39918;SDS011;25589;51.552;13.424;2023-11-21T08:26:35;8.25;;;5.75;;
39918;SDS011;25589;51.552;13.424;2023-11-21T08:29:01;9.90;;;5.38;;
39918;SDS011;25589;51.552;13.424;2023-11-21T08:31:27;10.23;;;5.25;;
39918;SDS011;25589;51.552;13.424;2023-11-21T08:33:53;7.80;;;5.57;;
39918;SDS011;25589;51.552;13.424;2023-11-21T08:36:20;12.00;;;6.72;;
39918;SDS011;25589;51.552;13.424;2023-11-21T08:38:49;9.23;;;6.75;;
39918;SDS011;25589;51.552;13.424;2023-11-21T08:41:17;8.10;;;4.75;;
39918;SDS011;25589;51.552;13.424;2023-11-21T08:43:43;8.00;;;5.10;;
39918;SDS011;25589;51.552;13.424;2023-11-21T08:46:09;6.40;;;4.40;;
39918;SDS011;25589;51.552;13.424;2023-11-21T08:48:38;7.00;;;5.25;;
39918;SDS011;25589;51.552;13.424;2023-11-21T08:51:06;8.80;;;5.07;;
39918;SDS011;25589;51.552;13.424;2023-11-21T08:53:31;8.90;;;4.90;;
39918;SDS011;25589;51.552;13.424;2023-11-21T08:55:58;8.65;;;5.50;;
39918;SDS011;25589;51.552;13.424;2023-11-21T08:58:23;7.07;;;5.25;;
39918;SDS011;25589;51.552;13.424;2023-11-21T09:00:49;7.50;;;4.97;;
39918;SDS011;25589;51.552;13.424;2023-11-21T09:03:14;7.47;;;5.45;;
39918;SDS011;25589;51.552;13.424;2023-11-21T09:05:40;6.65;;;4.90;;
39918;SDS011;25589;51.552;13.424;2023-11-21T09:08:06;8.35;;;5.80;;
39918;SDS011;25589;51.552;13.424;2023-11-21T09:10:32;11.75;;;6.18;;
39918;SDS011;25589;51.552;13.424;2023-11-21T09:13:00;7.97;;;5.75;;
39918;SDS011;25589;51.552;13.424;2023-11-21T09:15:26;9.95;;;5.90;;
39918;SDS011;25589;51.552;13.424;2023-11-21T09:17:52;9.38;;;6.20;;
39918;SDS011;25589;51.552;13.424;2023-11-21T09:20:18;10.30;;;6.57;;
39918;SDS011;25589;51.552;13.424;2023-11-21T09:22:47;12.48;;;6.90;;
39918;SDS011;25589;51.552;13.424;2023-11-21T09:25:13;11.10;;;6.20;;
39918;SDS011;25589;51.552;13.424;2023-11-21T09:27:39;11.93;;;6.75;;
39918;SDS011;25589;51.552;13.424;2023-11-21T09:30:05;8.75;;;5.63;;
39918;SDS011;25589;51.552;13.424;2023-11-21T09:32:34;8.90;;;5.28;;
39918;SDS011;25589;51.552;13.424;2023-11-21T09:35:02;7.25;;;4.72;;
39918;SDS011;25589;51.552;13.424;2023-11-21T09:37:28;7.93;;;4.85;;
39918;SDS011;25589;51.552;13.424;2023-11-21T09:39:54;8.63;;;5.32;;
39918;SDS011;25589;51.552;13.424;2023-11-21T09:42:23;7.88;;;4.97;;
39918;SDS011;25589;51.552;13.424;2023-11-21T09:45:08;6.78;;;4.53;;
39918;SDS011;25589;51.552;13.424;2023-11-21T09:47:38;7.90;;;4.60;;
39918;SDS011;25589;51.552;13.424;2023-11-21T09:50:05;7.80;;;4.63;;
39918;SDS011;25589;51.552;13.424;2023-11-21T09:52:34;6.20;;;4.55;;
39918;SDS011;25589;51.552;13.424;2023-11-21T09:55:13;6.90;;;4.70;;
39918;SDS011;25589;51.552;13.424;2023-11-21T09:57:41;6.82;;;4.90;;
39918;SDS011;25589;51.552;13.424;2023-11-21T10:00:07;6.85;;;4.75;;
39918;SDS011;25589;51.552;13.424;2023-11-21T10:02:37;6.60;;;4.13;;
39918;SDS011;25589;51.552;13.424;2023-11-21T10:05:04;4.82;;;3.95;;
39918;SDS011;25589;51.552;13.424;2023-11-21T10:07:30;7.20;;;4.63;;
39918;SDS011;25589;51.552;13.424;2023-11-21T10:09:58;7.18;;;4.40;;
39918;SDS011;25589;51.552;13.424;2023-11-21T10:12:25;7.20;;;4.75;;
39918;SDS011;25589;51.552;13.424;2023-11-21T10:14:53;9.07;;;5.28;;
39918;SDS011;25589;51.552;13.424;2023-11-21T10:17:21;9.20;;;5.20;;
39918;SDS011;25589;51.552;13.424;2023-11-21T10:19:51;8.00;;;5.18;;
39918;SDS011;25589;51.552;13.424;2023-11-21T10:22:19;6.32;;;4.68;;
39918;SDS011;25589;51.552;13.424;2023-11-21T10:24:46;7.10;;;4.47;;
39918;SDS011;25589;51.552;13.424;2023-11-21T10:27:11;5.38;;;4.32;;
39918;SDS011;25589;51.552;13.424;2023-11-21T10:29:38;7.53;;;5.50;;
39918;SDS011;25589;51.552;13.424;2023-11-21T10:32:04;9.15;;;6.18;;
39918;SDS011;25589;51.552;13.424;2023-11-21T10:34:30;10.15;;;6.45;;
39918;SDS011;25589;51.552;13.424;2023-11-21T10:36:56;7.95;;;5.93;;
39918;SDS011;25589;51.552;13.424;2023-11-21T10:39:24;7.53;;;5.32;;
39918;SDS011;25589;51.552;13.424;2023-11-21T10:41:52;7.38;;;5.60;;
39918;SDS011;25589;51.552;13.424;2023-11-21T10:44:19;8.13;;;5.80;;
39918;SDS011;25589;51.552;13.424;2023-11-21T10:46:46;9.70;;;6.63;;
39918;SDS011;25589;51.552;13.424;2023-11-21T10:49:16;8.35;;;5.95;;
39918;SDS011;25589;51.552;13.424;2023-11-21T10:51:43;7.05;;;5.50;;
39918;SDS011;25589;51.552;13.424;2023-11-21T10:54:09;10.52;;;6.55;;
39918;SDS011;25589;51.552;13.424;2023-11-21T10:56:34;10.15;;;7.68;;
39918;SDS011;25589;51.552;13.424;2023-11-21T10:59:05;9.23;;;6.63;;
39918;SDS011;25589;51.552;13.424;2023-11-21T11:01:34;9.48;;;5.90;;
39918;SDS011;25589;51.552;13.424;2023-11-21T11:04:01;9.48;;;6.45;;
39918;SDS011;25589;51.552;13.424;2023-11-21T11:06:31;7.22;;;5.22;;
39918;SDS011;25589;51.552;13.424;2023-11-21T11:08:58;6.93;;;5.32;;
39918;SDS011;25589;51.552;13.424;2023-11-21T11:11:25;6.78;;;5.28;;
39918;SDS011;25589;51.552;13.424;2023-11-21T11:13:50;10.32;;;5.80;;
39918;SDS011;25589;51.552;13.424;2023-11-21T11:16:18;6.68;;;4.75;;
39918;SDS011;25589;51.552;13.424;2023-11-21T11:18:44;7.47;;;5.53;;
39918;SDS011;25589;51.552;13.424;2023-11-21T11:21:25;10.35;;;5.75;;
39918;SDS011;25589;51.552;13.424;2023-11-21T11:24:11;8.25;;;5.45;;
39918;SDS011;25589;51.552;13.424;2023-11-21T11:29:58;7.75;;;5.13;;
39918;SDS011;25589;51.552;13.424;2023-11-21T11:32:38;6.53;;;4.90;;
39918;SDS011;25589;51.552;13.424;2023-11-21T11:37:51;8.30;;;5.93;;
39918;SDS011;25589;51.552;13.424;2023-11-21T11:40:17;9.18;;;5.70;;
39918;SDS011;25589;51.552;13.424;2023-11-21T11:43:00;8.05;;;5.35;;
39918;SDS011;25589;51.552;13.424;2023-11-21T11:45:33;8.25;;;5.80;;
39918;SDS011;25589;51.552;13.424;2023-11-21T11:48:00;7.70;;;5.35;;
39918;SDS011;25589;51.552;13.424;2023-11-21T11:50:28;10.35;;;6.20;;
39918;SDS011;25589;51.552;13.424;2023-11-21T11:52:55;8.68;;;5.97;;
39918;SDS011;25589;51.552;13.424;2023-11-21T11:55:36;9.05;;;5.82;;
39918;SDS011;25589;51.552;13.424;2023-11-21T11:58:04;8.52;;;5.38;;
39918;SDS011;25589;51.552;13.424;2023-11-21T12:00:34;11.80;;;5.72;;
39918;SDS011;25589;51.552;13.424;2023-11-21T12:03:05;10.38;;;6.13;;
39918;SDS011;25589;51.552;13.424;2023-11-21T12:05:32;8.27;;;5.32;;
39918;SDS011;25589;51.552;13.424;2023-11-21T12:08:06;9.30;;;5.03;;
39918;SDS011;25589;51.552;13.424;2023-11-21T12:10:36;7.38;;;4.95;;
39918;SDS011;25589;51.552;13.424;2023-11-21T12:13:08;8.50;;;5.40;;
39918;SDS011;25589;51.552;13.424;2023-11-21T12:15:38;10.05;;;5.82;;
39918;SDS011;25589;51.552;13.424;2023-11-21T12:18:05;9.00;;;5.32;;
39918;SDS011;25589;51.552;13.424;2023-11-21T12:20:31;8.13;;;4.93;;
39918;SDS011;25589;51.552;13.424;2023-11-21T12:23:03;6.22;;;4.18;;
39918;SDS011;25589;51.552;13.424;2023-11-21T12:25:30;7.18;;;4.35;;
39918;SDS011;25589;51.552;13.424;2023-11-21T12:28:01;9.00;;;4.82;;
39918;SDS011;25589;51.552;13.424;2023-11-21T12:30:34;6.13;;;4.05;;
39918;SDS011;25589;51.552;13.424;2023-11-21T12:33:00;9.73;;;4.10;;
39918;SDS011;25589;51.552;13.424;2023-11-21T12:35:31;6.85;;;4.15;;
39918;SDS011;25589;51.552;13.424;2023-11-21T12:37:59;9.57;;;4.53;;
39918;SDS011;25589;51.552;13.424;2023-11-21T12:40:27;8.07;;;4.35;;
39918;SDS011;25589;51.552;13.424;2023-11-21T12:42:55;8.00;;;4.95;;
39918;SDS011;25589;51.552;13.424;2023-11-21T12:45:22;8.57;;;4.95;;
39918;SDS011;25589;51.552;13.424;2023-11-21T12:47:51;8.85;;;5.38;;
39918;SDS011;25589;51.552;13.424;2023-11-21T12:50:21;12.65;;;5.22;;
39918;SDS011;25589;51.552;13.424;2023-11-21T12:52:49;7.30;;;4.80;;
39918;SDS011;25589;51.552;13.424;2023-11-21T12:55:16;7.68;;;5.00;;
39918;SDS011;25589;51.552;13.424;2023-11-21T12:57:43;8.05;;;4.63;;
39918;SDS011;25589;51.552;13.424;2023-11-21T13:00:10;7.63;;;4.22;;
39918;SDS011;25589;51.552;13.424;2023-11-21T13:02:52;6.78;;;4.38;;
39918;SDS011;25589;51.552;13.424;2023-11-21T13:05:29;8.93;;;4.78;;
39918;SDS011;25589;51.552;13.424;2023-11-21T13:08:00;6.32;;;3.83;;
39918;SDS011;25589;51.552;13.424;2023-11-21T13:10:32;6.93;;;3.60;;
39918;SDS011;25589;51.552;13.424;2023-11-21T13:13:01;6.32;;;3.95;;
39918;SDS011;25589;51.552;13.424;2023-11-21T13:15:30;6.00;;;3.97;;
39918;SDS011;25589;51.552;13.424;2023-11-21T13:17:57;6.78;;;4.20;;
39918;SDS011;25589;51.552;13.424;2023-11-21T13:20:24;8.20;;;4.45;;
39918;SDS011;25589;51.552;13.424;2023-11-21T13:25:23;19.00;;;9.00;;
39918;SDS011;25589;51.552;13.424;2023-11-21T13:28:00;7.13;;;3.85;;
39918;SDS011;25589;51.552;13.424;2023-11-21T13:30:25;5.00;;;3.15;;
39918;SDS011;25589;51.552;13.424;2023-11-21T13:32:55;3.63;;;2.47;;
39918;SDS011;25589;51.552;13.424;2023-11-21T13:35:27;3.00;;;2.40;;
39918;SDS011;25589;51.552;13.424;2023-11-21T13:38:02;3.00;;;2.63;;
39918;SDS011;25589;51.552;13.424;2023-11-21T13:40:35;3.17;;;2.50;;
39918;SDS011;25589;51.552;13.424;2023-11-21T13:43:09;2.97;;;2.38;;
39918;SDS011;25589;51.552;13.424;2023-11-21T13:45:36;3.08;;;2.28;;
39918;SDS011;25589;51.552;13.424;2023-11-21T13:48:08;4.75;;;2.53;;
39918;SDS011;25589;51.552;13.424;2023-11-21T13:50:39;3.65;;;2.35;;
39918;SDS011;25589;51.552;13.424;2023-11-21T13:53:11;2.78;;;1.88;;
39918;SDS011;25589;51.552;13.424;2023-11-21T13:55:47;2.05;;;1.70;;
39918;SDS011;25589;51.552;13.424;2023-11-21T13:58:14;2.22;;;1.85;;
39918;SDS011;25589;51.552;13.424;2023-11-21T14:00:44;2.40;;;1.88;;
39918;SDS011;25589;51.552;13.424;2023-11-21T14:03:14;1.60;;;1.50;;
39918;SDS011;25589;51.552;13.424;2023-11-21T14:05:44;2.17;;;1.83;;
39918;SDS011;25589;51.552;13.424;2023-11-21T14:08:13;2.10;;;1.90;;
39918;SDS011;25589;51.552;13.424;2023-11-21T14:10:41;2.17;;;1.90;;
39918;SDS011;25589;51.552;13.424;2023-11-21T14:13:09;2.75;;;1.98;;
39918;SDS011;25589;51.552;13.424;2023-11-21T14:15:40;9.27;;;3.10;;
39918;SDS011;25589;51.552;13.424;2023-11-21T14:18:08;5.22;;;2.50;;
39918;SDS011;25589;51.552;13.424;2023-11-21T14:20:39;10.23;;;4.15;;
39918;SDS011;25589;51.552;13.424;2023-11-21T14:23:06;10.48;;;4.72;;
39918;SDS011;25589;51.552;13.424;2023-11-21T14:25:35;6.60;;;3.15;;
39918;SDS011;25589;51.552;13.424;2023-11-21T14:28:02;3.10;;;2.13;;
39918;SDS011;25589;51.552;13.424;2023-11-21T14:30:28;7.55;;;4.72;;
39918;SDS011;25589;51.552;13.424;2023-11-21T14:32:57;4.43;;;3.00;;
39918;SDS011;25589;51.552;13.424;2023-11-21T14:35:23;7.90;;;3.53;;
39918;SDS011;25589;51.552;13.424;2023-11-21T14:37:49;4.50;;;3.22;;
39918;SDS011;25589;51.552;13.424;2023-11-21T14:40:14;2.45;;;2.03;;
39918;SDS011;25589;51.552;13.424;2023-11-21T14:42:41;4.65;;;2.80;;